Time;durP1;ratioP1;P1;durP2;ratioP2;P2;SDS_P1;SDS_P2;PMS_P1;PMS_P2;Temp;Humidity;BMP_temperature;BMP_pressure;BME280_temperature;BME280_humidity;BME280_pressure;Samples;Min_cycle;Max_cycle;Signal;HPM_P1;HPM_P2
2023/06/11 00:00:42;;;;;;;0.43;0.43;;;22.10;69.40;;;22.41;53.16;94853.44;5031587;28;20207;-40
2023/06/11 00:03:09;;;;;;;0.40;0.40;;;22.10;69.40;;;22.39;53.16;94855.56;5031736;28;20273;-40
2023/06/11 00:05:36;;;;;;;0.40;0.40;;;22.10;69.40;;;22.38;53.29;94848.59;5046859;28;20606;-42
2023/06/11 00:08:04;;;;;;;0.40;0.40;;;22.00;69.30;;;22.38;53.37;94848.59;5031430;28;20237;-42
2023/06/11 00:10:31;;;;;;;0.30;0.30;;;22.10;69.40;;;22.36;53.24;94854.19;5031617;28;20196;-41
2023/06/11 00:12:58;;;;;;;0.40;0.40;;;22.10;69.40;;;22.35;53.06;94843.75;5031331;28;20598;-42
2023/06/11 00:15:25;;;;;;;0.30;0.30;;;22.00;69.30;;;22.33;53.26;94849.38;5031090;28;20306;-42
2023/06/11 00:17:53;;;;;;;0.30;0.30;;;22.00;69.30;;;22.34;53.32;94847.50;5031308;28;20198;-42
2023/06/11 00:20:20;;;;;;;0.43;0.43;;;22.00;69.30;;;22.33;53.27;94852.03;5049776;28;20281;-42
2023/06/11 00:22:48;;;;;;;0.40;0.40;;;22.00;69.30;;;22.30;53.33;94844.56;5050211;28;20270;-42
2023/06/11 00:25:15;;;;;;;0.30;0.30;;;22.00;69.30;;;22.31;53.41;94851.50;5034688;28;20597;-42
2023/06/11 00:27:43;;;;;;;0.40;0.40;;;22.00;70.20;;;22.30;53.40;94849.91;5050134;28;20202;-41
2023/06/11 00:30:12;;;;;;;0.38;0.38;;;22.00;69.30;;;22.29;53.24;94855.50;5035082;28;20189;-42
2023/06/11 00:32:39;;;;;;;0.40;0.40;;;22.00;69.30;;;22.28;53.13;94848.59;5034473;28;20235;-42
2023/06/11 00:35:08;;;;;;;0.45;0.45;;;22.00;69.30;;;22.28;53.52;94845.91;5034411;28;20217;-42
2023/06/11 00:37:37;;;;;;;0.35;0.35;;;22.00;69.30;;;22.25;53.22;94844.56;5033519;28;20607;-42
2023/06/11 00:40:08;;;;;;;0.40;0.40;;;22.00;69.30;;;22.26;53.15;94848.84;5033416;28;20282;-42
2023/06/11 00:42:36;;;;;;;0.40;0.40;;;22.00;69.30;;;22.25;53.21;94849.09;5034584;28;20200;-42
2023/06/11 00:45:05;;;;;;;0.50;0.50;;;22.00;69.30;;;22.23;53.09;94850.16;5034162;28;20202;-42
2023/06/11 00:47:36;;;;;;;0.40;0.40;;;22.00;69.30;;;22.23;53.24;94852.06;5034174;28;20543;-42
2023/06/11 00:50:05;;;;;;;0.40;0.40;;;22.00;69.30;;;22.21;53.38;94854.19;5034312;28;20192;-42
2023/06/11 00:52:32;;;;;;;0.40;0.40;;;21.90;69.20;;;22.19;53.22;94850.97;5034241;28;20234;-43
2023/06/11 00:54:59;;;;;;;0.50;0.50;;;21.90;69.00;;;22.18;53.31;94844.84;5034157;28;20278;-42
2023/06/11 00:57:27;;;;;;;0.40;0.40;;;21.90;69.00;;;22.16;52.88;94849.63;5034214;28;20208;-41
2023/06/11 00:59:55;;;;;;;0.30;0.30;;;21.90;69.10;;;22.16;53.05;94838.94;5034000;28;20231;-45
2023/06/11 01:02:28;;;;;;;0.40;0.40;;;21.90;69.00;;;22.15;53.05;94845.34;5034031;28;20267;-43
2023/06/11 01:04:58;;;;;;;0.40;0.40;;;21.90;69.00;;;22.14;53.08;94843.78;5032929;28;20289;-42
2023/06/11 01:07:32;;;;;;;0.40;0.40;;;21.90;69.00;;;22.13;52.81;94849.38;5033964;28;20186;-43
2023/06/11 01:10:02;;;;;;;0.40;0.40;;;21.90;68.90;;;22.10;52.85;94842.69;5033428;28;20220;-43
2023/06/11 01:12:34;;;;;;;0.40;0.40;;;21.90;68.90;;;22.10;53.32;94848.03;5048953;28;20216;-41
2023/06/11 01:15:01;;;;;;;0.40;0.40;;;21.80;68.90;;;22.08;52.74;94844.81;5034253;28;20434;-42
2023/06/11 01:17:44;;;;;;;0.40;0.40;;;21.90;68.90;;;22.06;52.98;94853.09;5049284;28;20198;-42
2023/06/11 01:20:17;;;;;;;0.40;0.40;;;21.80;68.80;;;22.06;52.96;94849.63;5049350;28;20195;-41
2023/06/11 01:23:20;;;;;;;0.30;0.30;;;21.90;68.90;;;22.02;52.91;94846.69;5049271;28;20233;-41
2023/06/11 01:26:39;;;;;;;0.30;0.30;;;21.80;68.80;;;22.00;52.98;94854.16;5032580;28;20580;-42
2023/06/11 01:29:11;;;;;;;0.40;0.40;;;21.80;68.80;;;21.99;53.21;94852.56;5042037;28;20305;-43
2023/06/11 01:31:41;;;;;;;0.40;0.40;;;21.80;68.80;;;21.97;52.99;94848.56;5032657;28;20214;-42
2023/06/11 01:34:10;;;;;;;0.30;0.30;;;21.80;68.80;;;21.96;53.09;94853.09;5049198;28;20184;-42
2023/06/11 01:36:39;;;;;;;0.40;0.40;;;21.80;68.80;;;21.97;53.33;94844.03;5032325;28;20537;-41
2023/06/11 01:39:08;;;;;;;0.43;0.43;;;21.80;68.90;;;21.97;53.15;94851.22;5032488;28;20217;-41
2023/06/11 01:41:45;;;;;;;0.40;0.40;;;21.80;68.90;;;21.96;53.22;94855.78;5032721;28;20570;-42
2023/06/11 01:44:16;;;;;;;0.40;0.40;;;21.80;69.00;;;21.94;52.99;94843.75;5032439;28;20658;-41
2023/06/11 01:46:43;;;;;;;0.40;0.40;;;21.80;69.00;;;21.94;53.34;94860.56;5032326;28;20207;-41
2023/06/11 01:49:10;;;;;;;0.45;0.45;;;21.80;69.00;;;21.94;53.43;94857.09;5033166;28;20202;-42
2023/06/11 01:51:37;;;;;;;0.50;0.50;;;21.80;68.90;;;21.95;53.30;94869.38;5048731;28;20595;-41
2023/06/11 01:54:05;;;;;;;0.40;0.40;;;21.80;68.90;;;21.92;52.94;94860.03;5033234;28;20216;-42
2023/06/11 01:56:32;;;;;;;0.38;0.38;;;21.80;68.90;;;21.91;53.09;94866.44;5031985;28;20241;-42
2023/06/11 01:59:00;;;;;;;0.30;0.30;;;21.70;68.90;;;21.91;53.00;94869.13;5032224;28;20279;-42
2023/06/11 02:01:28;;;;;;;0.40;0.40;;;21.70;68.90;;;21.91;53.22;94871.78;5033106;28;20200;-43
2023/06/11 02:03:56;;;;;;;0.40;0.40;;;21.70;68.90;;;21.91;53.37;94869.13;5032113;28;20199;-41
2023/06/11 02:06:24;;;;;;;0.40;0.40;;;21.70;68.90;;;21.89;53.26;94872.03;5032892;28;20200;-42
2023/06/11 02:08:51;;;;;;;0.40;0.40;;;21.70;68.90;;;21.90;53.01;94881.66;5033237;28;20255;-42
2023/06/11 02:11:18;;;;;;;0.47;0.47;;;21.70;68.80;;;21.89;52.97;94874.72;5032039;28;20614;-42
2023/06/11 02:13:46;;;;;;;0.40;0.40;;;21.70;68.90;;;21.89;53.00;94871.25;5032032;28;20196;-42
2023/06/11 02:16:13;;;;;;;0.40;0.40;;;21.70;68.80;;;21.87;53.09;94874.19;5048476;28;20225;-43
2023/06/11 02:18:40;;;;;;;0.40;0.40;;;21.70;68.80;;;21.87;52.93;94884.88;5015458;28;20197;-43
2023/06/11 02:21:07;;;;;;;0.35;0.35;;;21.70;68.80;;;21.84;52.87;94885.38;5032786;28;20241;-42
2023/06/11 02:23:34;;;;;;;0.40;0.40;;;21.60;68.70;;;21.84;53.05;94882.72;5031675;28;20248;-42
2023/06/11 02:26:01;;;;;;;0.40;0.40;;;21.60;68.50;;;21.82;52.49;94884.84;5031645;28;20220;-43
2023/06/11 02:28:29;;;;;;;0.40;0.40;;;21.60;68.50;;;21.78;52.70;94891.78;5031741;28;20215;-41
2023/06/11 02:30:56;;;;;;;0.50;0.50;;;21.60;68.40;;;21.75;52.61;94887.78;5032853;28;20200;-42
2023/06/11 02:33:23;;;;;;;0.50;0.50;;;21.60;68.30;;;21.73;52.46;94891.78;5031697;28;20201;-42
2023/06/11 02:35:50;;;;;;;0.50;0.50;;;21.60;68.30;;;21.71;52.26;94893.88;5048155;28;20217;-42
2023/06/11 02:38:17;;;;;;;0.40;0.40;;;21.50;68.20;;;21.68;51.99;94905.06;5031317;28;20257;-42
2023/06/11 02:40:44;;;;;;;0.40;0.40;;;21.50;68.10;;;21.64;52.37;94902.16;5032836;28;20197;-41
2023/06/11 02:43:11;;;;;;;0.50;0.50;;;21.40;68.10;;;21.61;52.40;94902.66;5031083;28;20638;-43
2023/06/11 02:45:39;;;;;;;0.50;0.50;;;21.40;68.10;;;21.59;52.12;94910.13;5031536;28;20617;-41
2023/06/11 02:48:06;;;;;;;0.40;0.40;;;21.40;68.10;;;21.56;52.41;94906.13;5048289;28;20216;-41
2023/06/11 02:50:34;;;;;;;0.45;0.45;;;21.40;68.10;;;21.53;52.29;94914.63;5033049;28;20257;-42
2023/06/11 02:53:01;;;;;;;0.40;0.40;;;21.30;68.00;;;21.51;51.90;94905.28;5032681;28;20196;-41
2023/06/11 02:55:31;;;;;;;0.50;0.50;;;21.20;68.00;;;21.48;52.15;94913.78;5031454;28;20255;-41
2023/06/11 02:57:59;;;;;;;0.40;0.40;;;21.30;68.10;;;21.46;52.05;94923.91;5032577;28;20180;-42
2023/06/11 03:00:26;;;;;;;0.47;0.47;;;21.20;68.10;;;21.44;52.30;94926.84;5031404;28;20208;-42
2023/06/11 03:02:53;;;;;;;0.30;0.30;;;21.20;68.10;;;21.41;52.20;94927.34;5047967;28;20197;-42
2023/06/11 03:05:26;;;;;;;0.38;0.38;;;21.20;68.10;;;21.38;52.50;94926.00;5031440;28;20200;-41
2023/06/11 03:07:53;;;;;;;0.50;0.50;;;21.10;68.00;;;21.36;52.28;94928.16;5031482;28;20296;-41
2023/06/11 03:10:21;;;;;;;0.50;0.50;;;21.10;68.00;;;21.34;52.45;94924.94;5047850;28;20196;-43
2023/06/11 03:12:48;;;;;;;0.40;0.40;;;21.10;68.10;;;21.32;52.00;94924.38;5031328;28;20207;-44
2023/06/11 03:15:15;;;;;;;0.40;0.40;;;21.10;68.10;;;21.31;52.22;94924.66;5031970;28;20265;-42
2023/06/11 03:17:42;;;;;;;0.40;0.40;;;21.10;68.20;;;21.30;52.32;94913.19;5047567;28;20272;-41
2023/06/11 03:20:12;;;;;;;0.43;0.43;;;21.00;68.20;;;21.30;52.01;94926.53;5031205;28;20214;-45
2023/06/11 03:22:39;;;;;;;0.40;0.40;;;21.00;68.20;;;21.30;52.56;94917.72;5031534;28;20239;-43
2023/06/11 03:25:08;;;;;;;0.40;0.40;;;21.00;68.20;;;21.28;52.34;94921.44;5014897;28;20206;-41
2023/06/11 03:27:37;;;;;;;0.40;0.40;;;21.00;68.20;;;21.27;52.59;94917.16;5047458;28;20202;-40
2023/06/11 03:30:06;;;;;;;0.47;0.47;;;21.00;68.30;;;21.28;52.65;94921.44;5030944;28;20239;-40
2023/06/11 03:32:36;;;;;;;0.40;0.40;;;21.00;68.30;;;21.29;52.69;94919.59;5030981;28;20344;-40
2023/06/11 03:35:04;;;;;;;0.50;0.50;;;21.00;68.40;;;21.29;52.47;94922.25;5047659;28;20244;-40
2023/06/11 03:37:32;;;;;;;0.40;0.40;;;21.00;68.30;;;21.27;52.31;94917.16;5030796;28;20370;-40
2023/06/11 03:40:01;;;;;;;0.40;0.40;;;21.00;68.30;;;21.28;52.46;94924.09;5031040;28;20249;-40
2023/06/11 03:42:30;;;;;;;0.40;0.40;;;21.00;68.40;;;21.27;52.43;94921.69;5030643;28;20197;-40
2023/06/11 03:44:57;;;;;;;0.43;0.43;;;21.00;68.40;;;21.26;52.47;94923.56;5030759;28;20704;-40
2023/06/11 03:47:26;;;;;;;0.40;0.40;;;21.00;68.40;;;21.26;52.63;94922.75;5030980;28;20550;-40
2023/06/11 03:49:53;;;;;;;0.45;0.45;;;21.00;68.40;;;21.27;52.74;94927.81;5030708;28;20614;-40
2023/06/11 03:52:20;;;;;;;0.40;0.40;;;21.10;68.50;;;21.27;52.66;94925.16;5014249;28;20200;-40
2023/06/11 03:54:48;;;;;;;0.40;0.40;;;21.10;68.50;;;21.29;52.77;94916.91;5032217;28;20267;-41
2023/06/11 03:57:17;;;;;;;0.40;0.40;;;21.10;68.60;;;21.29;53.07;94924.91;5034013;28;20227;-41
2023/06/11 03:59:45;;;;;;;0.30;0.30;;;21.10;68.60;;;21.29;52.58;94922.25;5034098;28;20210;-40
2023/06/11 04:02:13;;;;;;;0.40;0.40;;;21.10;68.60;;;21.30;52.84;94920.38;5033948;28;20291;-40
2023/06/11 04:04:40;;;;;;;0.40;0.40;;;21.10;68.60;;;21.30;52.66;94921.19;5034935;28;20188;-41
2023/06/11 04:07:08;;;;;;;0.40;0.40;;;21.10;68.60;;;21.31;52.68;94917.44;5034907;28;20595;-40
2023/06/11 04:09:35;;;;;;;0.30;0.30;;;21.10;68.60;;;21.31;52.71;94917.44;5017666;28;20204;-41
2023/06/11 04:12:02;;;;;;;0.40;0.40;;;21.10;68.60;;;21.32;52.57;94915.59;5050297;28;20200;-40
2023/06/11 04:14:30;;;;;;;0.50;0.50;;;21.10;68.70;;;21.32;53.00;94919.06;5050410;28;20226;-41
2023/06/11 04:16:57;;;;;;;0.40;0.40;;;21.10;68.70;;;21.32;53.25;94919.06;5033735;28;20245;-40
2023/06/11 04:19:24;;;;;;;0.40;0.40;;;21.20;68.80;;;21.34;52.88;94921.47;5034972;28;20526;-41
2023/06/11 04:21:54;;;;;;;0.38;0.38;;;21.10;68.80;;;21.33;53.04;94917.22;5034628;28;20232;-41
2023/06/11 04:24:22;;;;;;;0.30;0.30;;;21.20;68.80;;;21.34;53.13;94919.59;5033897;28;20243;-41
2023/06/11 04:26:51;;;;;;;0.40;0.40;;;21.20;68.80;;;21.35;53.33;94923.88;5033796;28;20647;-41
2023/06/11 04:29:19;;;;;;;0.40;0.40;;;21.20;68.80;;;21.35;53.24;94917.72;5050525;28;20726;-41
2023/06/11 04:31:50;;;;;;;0.40;0.40;;;21.20;68.80;;;21.35;53.20;94915.88;5034284;28;20258;-41
2023/06/11 04:34:20;;;;;;;0.40;0.40;;;21.20;68.80;;;21.36;53.26;94916.66;5033573;28;20207;-42
2023/06/11 04:36:49;;;;;;;0.50;0.50;;;21.20;69.20;;;21.36;53.49;94927.34;5033438;28;20224;-43
2023/06/11 04:39:17;;;;;;;0.50;0.50;;;21.20;68.70;;;21.36;53.34;94920.16;5033476;28;20268;-42
2023/06/11 04:41:46;;;;;;;0.40;0.40;;;21.30;68.80;;;21.36;53.16;94922.81;5033354;28;20193;-41
2023/06/11 04:44:13;;;;;;;0.40;0.40;;;21.30;68.70;;;21.37;53.32;94927.09;5033753;28;20204;-41
2023/06/11 04:46:40;;;;;;;0.40;0.40;;;21.30;68.70;;;21.38;53.34;94934.03;5033346;28;20215;-43
2023/06/11 04:49:08;;;;;;;0.47;0.47;;;21.30;68.70;;;21.38;52.97;94934.03;5033289;28;20204;-42
2023/06/11 04:51:40;;;;;;;0.43;0.43;;;21.20;68.60;;;21.39;52.94;94934.84;5034438;28;20203;-44
2023/06/11 04:54:08;;;;;;;0.40;0.40;;;21.30;68.70;;;21.39;53.27;94937.50;5034362;28;20280;-43
2023/06/11 04:56:40;;;;;;;0.50;0.50;;;21.30;68.60;;;21.41;52.91;94938.03;5033166;28;20224;-42
2023/06/11 04:59:09;;;;;;;0.40;0.40;;;21.30;68.60;;;21.40;53.01;94934.56;5033986;28;20208;-42
2023/06/11 05:01:46;;;;;;;0.40;0.40;;;21.30;68.60;;;21.40;53.25;94941.78;5032951;28;20645;-43
2023/06/11 05:04:16;;;;;;;0.40;0.40;;;21.30;68.60;;;21.41;52.96;94938.03;5033104;28;20249;-42
2023/06/11 05:06:44;;;;;;;0.32;0.32;;;21.30;68.60;;;21.41;53.11;94936.19;5032702;28;20217;-41
2023/06/11 05:09:15;;;;;;;0.45;0.45;;;21.30;68.60;;;21.41;53.17;94938.03;5033056;28;20221;-45
2023/06/11 05:11:45;;;;;;;0.40;0.40;;;21.30;68.50;;;21.41;53.21;94941.53;5032818;28;20205;-41
2023/06/11 05:14:15;;;;;;;0.45;0.45;;;21.30;68.60;;;21.43;53.21;94936.75;5033343;28;20213;-44
2023/06/11 05:16:43;;;;;;;0.40;0.40;;;21.40;68.60;;;21.43;53.08;94942.06;5032795;28;20230;-41
2023/06/11 05:19:11;;;;;;;0.50;0.50;;;21.30;69.40;;;21.44;53.20;94940.19;5032819;28;20639;-41
2023/06/11 05:21:39;;;;;;;0.50;0.50;;;21.30;68.50;;;21.43;53.12;94938.59;5049022;28;20263;-42
2023/06/11 05:24:07;;;;;;;0.40;0.40;;;21.30;68.50;;;21.44;53.24;94943.66;5033061;28;20185;-41
2023/06/11 05:26:39;;;;;;;0.40;0.40;;;21.30;68.50;;;21.46;53.33;94939.94;5033000;28;20230;-42
2023/06/11 05:29:10;;;;;;;0.43;0.43;;;21.40;68.50;;;21.47;53.08;94934.34;5032720;28;20636;-41
2023/06/11 05:31:39;;;;;;;0.40;0.40;;;21.40;68.50;;;21.48;53.19;94935.13;5032494;28;20290;-41
2023/06/11 05:34:07;;;;;;;0.30;0.30;;;21.40;68.60;;;21.47;53.28;94941.53;5049197;28;20295;-41
2023/06/11 05:36:34;;;;;;;0.40;0.40;;;21.40;68.60;;;21.48;53.24;94937.81;5033502;28;20663;-42
2023/06/11 05:39:01;;;;;;;0.40;0.40;;;21.40;68.60;;;21.48;53.13;94938.59;5032532;28;20298;-41
2023/06/11 05:41:29;;;;;;;0.40;0.40;;;21.40;68.60;;;21.50;52.98;94943.69;5032532;28;20201;-41
2023/06/11 05:43:57;;;;;;;0.40;0.40;;;21.40;68.50;;;21.50;53.16;94946.38;5032378;28;20201;-40
2023/06/11 05:46:25;;;;;;;0.40;0.40;;;21.40;68.50;;;21.50;53.12;94949.03;5033309;28;20234;-40
2023/06/11 05:48:52;;;;;;;0.40;0.40;;;21.40;68.50;;;21.52;53.15;94950.38;5033565;28;20304;-41
2023/06/11 05:51:20;;;;;;;0.38;0.38;;;21.40;68.50;;;21.51;52.85;94951.44;5032648;28;20202;-41
2023/06/11 05:53:48;;;;;;;0.40;0.40;;;21.40;68.50;;;21.53;52.95;94949.31;5032174;28;20216;-41
2023/06/11 05:56:15;;;;;;;0.43;0.43;;;21.40;68.50;;;21.54;52.91;94958.13;5033408;28;20223;-42
2023/06/11 05:58:44;;;;;;;0.40;0.40;;;21.40;68.50;;;21.55;53.21;94962.41;5032273;28;20210;-41
2023/06/11 06:01:12;;;;;;;0.40;0.40;;;21.50;68.50;;;21.54;53.03;94958.13;5033082;28;20236;-41
2023/06/11 06:03:40;;;;;;;0.50;0.50;;;21.40;68.40;;;21.56;52.96;94956.81;5048521;28;20640;-42
2023/06/11 06:06:11;;;;;;;0.40;0.40;;;21.50;68.50;;;21.57;53.26;94953.09;5032118;28;20200;-42
2023/06/11 06:08:40;;;;;;;0.40;0.40;;;21.40;68.40;;;21.58;53.16;94952.03;5032304;28;20216;-41
2023/06/11 06:11:11;;;;;;;0.40;0.40;;;21.50;69.40;;;21.59;53.06;94956.31;5049219;28;20192;-41
2023/06/11 06:13:40;;;;;;;0.40;0.40;;;21.50;68.50;;;21.58;53.05;94957.38;5031830;28;20278;-42
2023/06/11 06:16:07;;;;;;;0.40;0.40;;;21.50;68.50;;;21.62;52.90;94955.00;5032777;28;20534;-42
2023/06/11 06:18:37;;;;;;;0.38;0.38;;;21.50;68.40;;;21.63;53.17;94958.44;5031102;28;20203;-42
2023/06/11 06:21:03;;;;;;;0.40;0.40;;;21.50;68.40;;;21.63;52.93;94961.94;5031882;28;20265;-41
2023/06/11 06:23:31;;;;;;;0.40;0.40;;;21.50;68.50;;;21.65;52.76;94964.34;5031573;28;20245;-46
2023/06/11 06:26:06;;;;;;;0.50;0.50;;;21.60;68.50;;;21.67;52.84;94962.22;5048593;28;20188;-41
2023/06/11 06:28:35;;;;;;;0.40;0.40;;;21.50;68.40;;;21.66;52.87;94960.63;5048556;28;20196;-42
2023/06/11 06:31:03;;;;;;;0.40;0.40;;;21.50;68.40;;;21.69;53.09;94965.41;5031714;28;20570;-46
2023/06/11 06:33:35;;;;;;;0.50;0.50;;;21.60;68.40;;;21.69;53.02;94965.41;5031641;28;20655;-41
2023/06/11 06:36:03;;;;;;;0.40;0.40;;;21.60;68.40;;;21.71;52.64;94968.63;5048552;28;20261;-42
2023/06/11 06:38:32;;;;;;;0.40;0.40;;;21.60;68.40;;;21.71;52.74;94964.09;5031721;28;20198;-42
2023/06/11 06:40:59;;;;;;;0.40;0.40;;;21.60;68.40;;;21.74;52.79;94968.91;5032711;28;20212;-44
2023/06/11 06:43:26;;;;;;;0.30;0.30;;;21.60;68.30;;;21.75;52.81;94973.19;5031426;28;20561;-45
2023/06/11 06:45:56;;;;;;;0.40;0.40;;;21.60;68.30;;;21.76;52.84;94979.31;5031625;28;20254;-41
2023/06/11 06:48:32;;;;;;;0.38;0.38;;;21.60;68.30;;;21.76;52.65;94971.31;5048311;28;20580;-44
2023/06/11 06:51:00;;;;;;;0.40;0.40;;;21.70;68.40;;;21.79;52.52;94980.66;5030939;28;20608;-45
2023/06/11 06:53:28;;;;;;;0.40;0.40;;;21.70;68.40;;;21.81;52.52;94979.34;5031309;28;20193;-42
2023/06/11 06:55:55;;;;;;;0.40;0.40;;;21.70;68.30;;;21.82;52.42;94977.50;5032569;28;20228;-45
2023/06/11 06:58:22;;;;;;;0.40;0.40;;;21.70;68.30;;;21.84;52.78;94978.03;5032220;28;20216;-45
2023/06/11 07:00:50;;;;;;;0.40;0.40;;;21.70;68.30;;;21.85;52.65;94990.31;5032757;28;20186;-46
2023/06/11 07:03:19;;;;;;;0.40;0.40;;;21.70;68.30;;;21.86;52.70;94975.91;5031316;28;20525;-40
2023/06/11 07:05:47;;;;;;;0.40;0.40;;;21.70;68.20;;;21.87;52.72;94980.19;5031094;28;20198;-40
2023/06/11 07:08:15;;;;;;;0.40;0.40;;;21.80;68.30;;;21.90;52.72;94983.13;5014983;28;20604;-41
2023/06/11 07:10:53;;;;;;;0.40;0.40;;;21.80;68.20;;;21.90;52.74;94982.34;5031184;28;20242;-40
2023/06/11 07:13:32;;;;;;;0.40;0.40;;;21.80;68.20;;;21.91;52.42;94982.06;5031146;28;20598;-40
2023/06/11 07:16:00;;;;;;;0.32;0.32;;;21.80;68.20;;;21.94;52.63;94983.41;5031116;28;20289;-40
2023/06/11 07:18:28;;;;;;;0.30;0.30;;;21.80;68.20;;;21.96;52.58;94985.81;5030823;28;20222;-40
2023/06/11 07:20:56;;;;;;;0.30;0.30;;;21.80;68.20;;;21.97;52.75;94985.56;5047666;28;20202;-40
2023/06/11 07:23:24;;;;;;;0.40;0.40;;;21.80;68.10;;;21.98;52.38;94981.81;5030888;28;20268;-40
2023/06/11 07:25:53;;;;;;;0.40;0.40;;;21.80;69.00;;;22.00;52.39;94984.25;5031000;28;20200;-40
2023/06/11 07:28:20;;;;;;;0.32;0.32;;;21.90;68.20;;;22.03;52.73;94986.38;5031962;28;20508;-40
2023/06/11 07:30:48;;;;;;;0.40;0.40;;;21.90;69.10;;;22.03;52.45;94989.84;5034391;28;20216;-41
2023/06/11 07:33:18;;;;;;;0.30;0.30;;;21.90;68.10;;;22.05;52.44;94989.59;5051000;28;20601;-40
2023/06/11 07:35:49;;;;;;;0.40;0.40;;;21.90;68.10;;;22.07;52.30;94990.94;5034226;28;20220;-41
2023/06/11 07:38:17;;;;;;;0.30;0.30;;;22.00;68.10;;;22.09;52.26;94988.00;5051039;28;20280;-40
2023/06/11 07:40:44;;;;;;;0.35;0.35;;;21.90;68.00;;;22.12;52.32;94986.66;5034435;28;20287;-42
2023/06/11 07:43:11;;;;;;;0.40;0.40;;;22.00;68.10;;;22.11;52.16;94975.19;5030349;28;20212;-40
2023/06/11 07:45:38;;;;;;;0.40;0.40;;;22.00;68.00;;;22.16;52.29;94993.88;5015899;28;20191;-40
2023/06/11 07:48:06;;;;;;;0.30;0.30;;;22.00;68.10;;;22.18;52.19;94978.41;5022940;28;20276;-40
2023/06/11 07:50:33;;;;;;;0.45;0.45;;;22.00;68.00;;;22.20;52.14;94989.66;5025338;28;20203;-40
2023/06/11 07:53:01;;;;;;;0.30;0.30;;;22.00;67.90;;;22.23;52.11;94989.09;5015628;28;20538;-40
2023/06/11 07:55:29;;;;;;;0.30;0.30;;;22.10;68.00;;;22.26;52.26;94981.63;5014038;28;20576;-43
2023/06/11 07:57:56;;;;;;;0.40;0.40;;;22.10;67.90;;;22.26;52.40;94985.09;5022165;28;20209;-42
2023/06/11 08:00:24;;;;;;;0.30;0.30;;;22.10;67.90;;;22.29;52.42;94981.09;5015456;28;20596;-41
2023/06/11 08:02:51;;;;;;;0.40;0.40;;;22.10;67.80;;;22.30;52.03;94990.72;5015190;28;20287;-41
2023/06/11 08:05:20;;;;;;;0.40;0.40;;;22.20;67.90;;;22.33;52.27;94984.84;5015239;28;20201;-40
2023/06/11 08:07:48;;;;;;;0.35;0.35;;;22.20;67.80;;;22.34;51.90;94989.13;5015143;28;20203;-42
2023/06/11 08:10:15;;;;;;;0.40;0.40;;;22.20;67.80;;;22.36;51.91;94986.97;5015306;28;20228;-45
2023/06/11 08:12:42;;;;;;;0.40;0.40;;;22.20;67.80;;;22.38;51.87;94979.53;5014500;28;20666;-42
2023/06/11 08:15:10;;;;;;;0.40;0.40;;;22.20;67.80;;;22.39;52.20;94979.28;5015018;28;20241;-42
2023/06/11 08:17:38;;;;;;;0.40;0.40;;;22.20;67.70;;;22.43;51.86;94979.53;5014957;28;20217;-44
2023/06/11 08:20:07;;;;;;;0.40;0.40;;;22.30;67.80;;;22.45;51.75;94987.28;5014992;28;20525;-40
2023/06/11 08:22:35;;;;;;;0.30;0.30;;;22.30;67.70;;;22.44;52.05;94980.38;5014784;28;20296;-41
2023/06/11 08:25:02;;;;;;;0.40;0.40;;;22.30;67.70;;;22.48;51.78;94981.44;5014748;28;20634;-41
2023/06/11 08:27:29;;;;;;;0.40;0.40;;;22.30;67.70;;;22.50;51.95;94988.09;5015658;28;20270;-43
2023/06/11 08:29:57;;;;;;;0.30;0.30;;;22.30;67.70;;;22.51;51.72;94975.56;5015080;28;20206;-43
2023/06/11 08:32:25;;;;;;;0.40;0.40;;;22.30;67.60;;;22.52;51.92;94980.63;5014784;28;20713;-44
2023/06/11 08:34:52;;;;;;;0.40;0.40;;;22.30;67.60;;;22.54;51.69;94978.50;5014607;28;20276;-42
2023/06/11 08:37:19;;;;;;;0.35;0.35;;;22.40;67.70;;;22.57;51.50;94985.19;5014766;28;20222;-44
2023/06/11 08:39:46;;;;;;;0.30;0.30;;;22.40;67.60;;;22.58;51.41;94980.63;5014394;28;20226;-44
2023/06/11 08:42:14;;;;;;;0.30;0.30;;;22.40;67.60;;;22.59;51.49;94988.38;5015091;28;20197;-46
2023/06/11 08:44:41;;;;;;;0.40;0.40;;;22.40;67.50;;;22.59;51.59;94980.38;5014844;28;20197;-43
2023/06/11 08:47:10;;;;;;;0.32;0.32;;;22.50;67.50;;;22.63;51.51;94994.00;5014601;28;20635;-43
2023/06/11 08:49:40;;;;;;;0.30;0.30;;;22.40;67.50;;;22.63;51.55;94988.66;5013663;28;20287;-41
2023/06/11 08:52:08;;;;;;;0.40;0.40;;;22.50;67.50;;;22.66;51.43;94985.47;5014381;28;20675;-42
2023/06/11 08:54:35;;;;;;;0.40;0.40;;;22.50;67.50;;;22.67;51.40;94987.84;5014405;28;20221;-41
2023/06/11 08:57:04;;;;;;;0.40;0.40;;;22.50;67.50;;;22.69;51.51;94991.09;5014564;28;20597;-42
2023/06/11 08:59:31;;;;;;;0.40;0.40;;;22.50;67.40;;;22.70;51.52;94982.00;5014365;28;20300;-41
2023/06/11 09:01:59;;;;;;;0.40;0.40;;;22.50;67.30;;;22.72;51.40;94984.41;5014286;28;20228;-41
2023/06/11 09:04:27;;;;;;;0.40;0.40;;;22.50;67.30;;;22.74;51.33;94987.63;5014249;28;20189;-41
2023/06/11 09:06:59;;;;;;;0.30;0.30;;;22.50;67.30;;;22.76;51.32;94974.75;5014346;28;20503;-41
2023/06/11 09:09:27;;;;;;;0.38;0.38;;;22.50;67.10;;;22.76;51.26;94971.28;5014193;28;20199;-41
2023/06/11 09:11:54;;;;;;;0.40;0.40;;;22.60;67.30;;;22.80;51.16;94981.19;5014064;28;20339;-41
2023/06/11 09:14:21;;;;;;;0.40;0.40;;;22.60;67.20;;;22.82;51.34;94976.38;5014295;28;20624;-39
2023/06/11 09:16:49;;;;;;;0.32;0.32;;;22.60;67.20;;;22.85;51.29;94980.38;5014019;28;20193;-42
2023/06/11 09:19:19;;;;;;;0.32;0.32;;;22.60;67.10;;;22.88;50.93;94981.72;5013897;28;20194;-41
2023/06/11 09:21:56;;;;;;;0.30;0.30;;;22.70;67.10;;;22.89;51.10;94981.44;5014058;28;20228;-41
2023/06/11 09:24:24;;;;;;;0.35;0.35;;;22.70;66.80;;;22.92;50.74;94980.91;5014302;28;20180;-41
2023/06/11 09:26:57;;;;;;;0.30;0.30;;;22.70;66.90;;;22.93;50.78;94984.41;5014201;28;20217;-41
2023/06/11 09:29:27;;;;;;;0.40;0.40;;;22.70;66.70;;;22.95;50.71;94979.56;5013851;28;20182;-42
2023/06/11 09:32:09;;;;;;;0.40;0.40;;;22.70;66.70;;;22.94;50.68;94984.13;5013883;28;20200;-41
2023/06/11 09:34:56;;;;;;;0.30;0.30;;;22.70;66.60;;;22.95;50.55;94984.91;5014560;28;20200;-40
2023/06/11 09:37:24;;;;;;;0.40;0.40;;;22.80;66.80;;;22.96;50.54;94987.34;5013756;28;20213;-42
2023/06/11 09:39:51;;;;;;;0.40;0.40;;;22.80;66.70;;;22.97;50.55;94988.94;5013591;28;20197;-41
2023/06/11 09:42:26;;;;;;;0.40;0.40;;;22.80;66.60;;;22.99;50.21;94994.03;5014023;28;20267;-43
2023/06/11 09:44:58;;;;;;;0.40;0.40;;;22.80;66.30;;;22.99;50.58;94992.13;5013707;28;20210;-40
2023/06/11 09:47:31;;;;;;;0.40;0.40;;;22.80;66.40;;;23.01;50.43;94990.00;5013669;28;20195;-42
2023/06/11 09:49:59;;;;;;;0.38;0.38;;;22.80;66.50;;;23.03;50.56;94987.88;5013744;28;20601;-45
2023/06/11 09:52:28;;;;;;;0.40;0.40;;;22.80;66.60;;;23.06;50.28;94986.53;5012618;28;20201;-40
2023/06/11 09:54:56;;;;;;;0.35;0.35;;;22.80;66.50;;;23.05;50.63;94987.59;5012961;28;20255;-40
2023/06/11 09:57:24;;;;;;;0.40;0.40;;;22.80;66.50;;;23.10;50.23;94987.59;5012576;28;20210;-40
2023/06/11 09:59:51;;;;;;;0.30;0.30;;;22.80;66.50;;;23.12;50.24;94987.31;5013358;28;20191;-44
2023/06/11 10:02:19;;;;;;;0.40;0.40;;;22.90;66.50;;;23.14;50.24;94988.66;5013677;28;20201;-40
2023/06/11 10:04:46;;;;;;;0.30;0.30;;;22.90;66.50;;;23.16;50.37;94986.53;5012953;28;20189;-41
2023/06/11 10:07:14;;;;;;;0.40;0.40;;;22.90;66.40;;;23.20;50.12;94999.38;5013345;28;20272;-44
2023/06/11 10:09:43;;;;;;;0.30;0.30;;;22.90;66.30;;;23.21;49.95;94996.44;5012450;28;20295;-42
2023/06/11 10:12:10;;;;;;;0.30;0.30;;;22.90;66.20;;;23.23;50.21;94998.84;5012252;28;20236;-41
2023/06/11 10:14:39;;;;;;;0.40;0.40;;;22.90;66.10;;;23.25;49.93;95000.16;5012697;28;20185;-43
2023/06/11 10:17:08;;;;;;;0.30;0.30;;;23.00;66.10;;;23.27;49.92;94997.25;5012537;28;20284;-42
2023/06/11 10:19:39;;;;;;;0.30;0.30;;;23.00;65.90;;;23.28;49.82;94999.63;5012998;28;20193;-47
2023/06/11 10:22:06;;;;;;;0.30;0.30;;;23.00;65.90;;;23.30;49.71;95000.19;5012024;28;20297;-41
2023/06/11 10:24:33;;;;;;;0.32;0.32;;;23.00;66.80;;;23.32;49.82;95000.69;5013348;28;20251;-41
2023/06/11 10:27:12;;;;;;;0.40;0.40;;;23.10;65.90;;;23.34;49.78;94997.75;5013036;28;20228;-46